Extreme weather reports worldwide

High winds

Station
 
Location
 
Name
 
Wind
Knots
Gust
Knots
Vis
SM
Temp/Dew
C
Baro
inHg
METAR
 
CWAQ 34 18/9 CWAQ 151500Z AUTO 00034KT 18/10 RMK AO1 SLP166 T01810099 51007
THU BGTL Thule, GL Thule Air Base 33 41 6/-1 29.56 BGTL 151455Z AUTO 17033G41KT 9999 BKN050 OVC065 06/M01 A2956 RMK AO2 SLP992 T00621010 57009 TSNO $
MPN EGYP Mount Pleasant, FK Mount Pleasant Airport 32 8/3 29.73 EGYP 151450Z 36032KT 9999 FEW018 BKN190 08/03 Q1007 NOSIG
KMWN 29 0 13/13 KMWN 151447Z 27029KT 0SM FG VV000 13/13 RMK
AOK LGKP Karpathos Island, GR Karpathos Airport 27 38 29/20 29.62 LGKP 151450Z 28027G38KT CAVOK 29/20 Q1003

Station
 
Location
 
Name
 
Wind
Knots
Gust
Knots
Vis
SM
Temp/Dew
C
Baro
inHg
METAR
 
OODQ 27 5.59 27/23 29.41 OODQ 151450Z AUTO 21027KT 9000 R22///// FEW028 BKN190 27/23 Q0996 NOSIG
RUD OIMJ IR Shahroud Airport 27 24/10 29.88 OIMJ 151500Z 01027KT CAVOK 24/10 Q1012
TMR DAAT Tamanrasset, DZ Aguenar – Hadj Bey Akhamok Airport 26 0.5 29/12 30.18 DAAT 151500Z 03026KT 0800 TS SA FEW040CB SCT046TCU 29/12 Q1022
VIL GMMH Dakhla, EH Dakhla Airport 26 3.73 25/17 29.85 GMMH 151500Z 03026KT 6000 NSC 25/17 Q1011 NOSIG
LPA GCLP Gran Canaria Island, ES Gran Canaria Airport 25 29/15 30.00 GCLP 151500Z 02025KT CAVOK 29/15 Q1016 NOSIG
EUN GMML El Aaiún, EH Hassan I Airport 25 1.99 33/12 29.94 GMML 151500Z 04025KT 3200 SA NSC 33/12 Q1014 NOSIG
ADU OITL Ardabil, IR Ardabil Airport 25 19/4 29.94 OITL 151500Z 07025KT CAVOK 19/04 Q1014 NOSIG
OGA KOGA Ogallala, US Searle Field 24 27 31/10 29.94 KOGA 151455Z AUTO 33024G27KT 10SM CLR 32/11 A2994 RMK AO2 T03160109
CWQK 24 11/11 CWQK 151500Z AUTO 27024KT 12/12 RMK AO1 PK WND 27029/1401 SLP197 T01150115 53013
ENHE 23 16/13 29.73 ENHE 151450Z 08023KT CAVOK 16/13 Q1007 W///S3
YNB OEYN Yanbu, SA Prince Abdulmohsin Bin Abdulaziz Airport 23 39/17 29.47 OEYN 151500Z 26023KT CAVOK 39/17 Q0998 NOSIG
IFN OIFM Isfahan, IR Esfahan Shahid Beheshti International Airport 23 36/3 29.76 OIFM 151500Z 07023KT CAVOK 36/03 Q1008 A2979
NTL YWLM Williamtown, AU Newcastle Airport 23 10/3 29.65 YWLM 151500Z AUTO 30023KT 9999 // NCD 10/03 Q1004 RF00.0/000.0
LOO DAUL Laghouat, DZ Laghouat Airport 22 3.73 / 29.97 DAUL 151400Z 25022KT 6000 SCT040 45/// Q1015
PAS LGPA Paros Island, GR Paros National Airport 22 32 29/15 29.70 LGPA 151450Z 35022G32KT CAVOK 29/15 Q1006
SUU KSUU Fairfield, US Travis Air Force Base 22 30 15/11 29.98 KSUU 151455Z AUTO 24022G30KT 10SM CLR 16/11 A2998 RMK AO2 PK WND 24030/47 SLP159 T01570111 52015 $
YPH CYPH Inukjuak, CA Inukjuak Airport 22 27 9 16/7 29.68 CYPH 151500Z AUTO 08022G27KT 9SM SCT210 16/07 A2968 RMK SLP053 DENSITY ALT 500FT
LEGT Getafe, ES Getafe Air Base 22 30/15 30.00 LEGT 151500Z 24022KT 210V280 CAVOK 30/15 Q1016
AJF OESK Al-Jawf, SA Al-Jawf Domestic Airport 22 37/6 29.73 OESK 151500Z 30022KT CAVOK 37/06 Q1007 NOSIG
MZH LTAP Amasya, TR Amasya Merzifon Airport 21 28/10 29.70 LTAP 151450Z 04021KT 9999 FEW040 SCT100 28/10 Q1006 NOSIG RMK RWY23 04020KT
K1KW 21 25 29/6 30.08 K1KW 151455Z AUTO 31021G25KT 10SM FEW150 29/06 A3008 RMK AO2 PK WND 32026/43 SLP111 T02900064 52010 $
KMYP 21 24 11/1 30.87 KMYP 151455Z AUTO 29021G24KT 10SM CLR 11/01 A3087 RMK AO2
TTA GMAT Tan Tan, MA Tan Tan Airport 21 4.97 27/13 29.94 GMAT 151500Z 03021KT 8000 NSC 27/13 Q1014 NOSIG
TOJ LETO Madrid, ES Torrejón Airport 21 30/14 29.97 LETO 151500Z 23021KT 200V260 CAVOK 30/14 Q1015 NOSIG
CHR LFLX Châteauroux/Déols, FR Châteauroux-Déols "Marcel Dassault" Airport 21 27/18 29.79 LFLX 151500Z AUTO 24021KT 9999 BKN037 27/18 Q1009 TEMPO 24015G30KT
DNR LFRD Dinard/Pleurtuit/Saint-Malo, FR Dinard-Pleurtuit-Saint-Malo Airport 21 23/15 29.68 LFRD 151500Z AUTO 21021KT 9999 BKN036 BKN045 23/15 Q1005 TEMPO 3000 SHRA BKN020CB BECMG 23010KT
TIF OETF Ta’if, SA Ta’if Regional Airport 21 32/1 29.97 OETF 151500Z 25021KT CAVOK 32/01 Q1015 NOSIG
MEL YMML Melbourne, AU Melbourne International Airport 21 31 1.86 10/9 29.53 YMML 151503Z 25021G31KT 3000 -RA DZ BKN006 OVC011 10/09 Q1000
JMK LGMK Mykonos Island, GR Mikonos Airport 20 30 28/15 29.73 LGMK 151450Z 36020G30KT CAVOK 28/15 Q1007 WS R34
BZI LTBF TR Balıkesir Merkez Airport 20 32/17 29.73 LTBF 151450Z 01020KT CAVOK 32/17 Q1007 NOSIG
K1EW 20 27/5 30.13 K1EW 151455Z AUTO 33020KT 10SM CLR 27/06 A3013 RMK AO2 SLP124 T02740056 52012 $
SBNT Natal, BR Augusto Severo Airport 20 28/20 30.03 SBNT 151500Z 15020KT 9999 SCT033 28/20 Q1017
CUC SKCC Cúcuta, CO Camilo Daza International Airport 20 31/17 29.94 SKCC 151500Z 17020KT 9999 FEW023 SCT090 31/17 Q1014
TOS ENTC Tromsø, NO Tromsø Airport 19 14/9 29.94 ENTC 151450Z 02019KT CAVOK 14/09 Q1014 NOSIG RMK WIND 2600FT 09003KT
ENUN 19 0.25 12/12 29.85 ENUN 151450Z AUTO 06019KT 0400 FG VV250 12/12 Q1011 W11/S4
TEQ LTBU Çorlu, TR Tekirdağ Çorlu Airport 19 32/8 29.82 LTBU 151450Z 36019KT CAVOK 32/08 Q1010 RMK RWY22 03015KT
PSY SFAL Stanley, FK Port Stanley Airport 19 7/4 29.82 SFAL 151450Z 35019KT FEW009 07/04 Q1010
PKMR 19 15 29/25 29.73 PKMR 151452Z 07019KT 15SM FEW014 SCT050 BKN120 OVC300 29/26 A2973 RMK SLP069 60019 8/878 T02900255 57022
K1AW 19 27/5 30.18 K1AW 151455Z AUTO 35019KT 10SM CLR 28/06 A3018 RMK AO2 SLP136 T02760058 52013
K1IW 19 30/7 30.03 K1IW 151455Z AUTO 32019KT 10SM CLR 30/08 A3003 RMK AO2 PK WND 32026/39 SLP098 T03010079 53008 $
K1NW 19 30/6 30.08 K1NW 151455Z AUTO 33019KT 10SM CLR 31/07 A3008 RMK AO2 SLP107 T03090067 52007 $
K1OW 19 26/7 30.26 K1OW 151455Z AUTO 33019KT 10SM BKN180 27/07 A3026 RMK AO2 PK WND 33026/38 SLP166 T02660071 53010 PNO $
VDE GCHI El Hierro Island, ES Hierro Airport 19 26/19 30.06 GCHI 151500Z 33019KT 9999 FEW014 26/19 Q1018
OUD GMFO Oujda, MA Angads Airport 19 33/-4 29.97 GMFO 151500Z 36019KT CAVOK 33/M04 Q1015 NOSIG
MAD LEMD Madrid, ES Adolfo Suárez Madrid–Barajas Airport 19 31/14 29.97 LEMD 151500Z 22019KT 190V250 9999 FEW050 31/14 Q1015 WS R14R WS R18L NOSIG